Time;durP1;ratioP1;P1;durP2;ratioP2;P2;SDS_P1;SDS_P2;PMS_P1;PMS_P2;Temp;Humidity;BMP_temperature;BMP_pressure;BME280_temperature;BME280_humidity;BME280_pressure;Samples;Min_cycle;Max_cycle;Signal;HPM_P1;HPM_P2
2022/08/10 00:01:11;;;;;;;3.40;2.45;;;17.60;99.90;;;;;;5095154;28;20201;-85
2022/08/10 00:03:38;;;;;;;3.03;2.83;;;17.60;99.90;;;;;;5090201;28;20804;-84
2022/08/10 00:06:06;;;;;;;3.92;2.83;;;17.50;99.90;;;;;;5074490;28;20202;-82
2022/08/10 00:08:35;;;;;;;3.25;2.97;;;17.50;99.90;;;;;;5074990;28;20213;-83
2022/08/10 00:11:02;;;;;;;5.68;2.85;;;17.50;99.90;;;;;;5074581;28;20277;-84
2022/08/10 00:13:29;;;;;;;3.60;2.88;;;17.50;99.90;;;;;;5074944;28;20284;-84
2022/08/10 00:15:56;;;;;;;3.05;2.85;;;17.50;99.90;;;;;;5074960;28;20215;-86
2022/08/10 00:18:23;;;;;;;2.95;2.13;;;17.50;99.90;;;;;;5074943;28;20209;-85
2022/08/10 00:20:50;;;;;;;4.25;2.75;;;17.50;99.90;;;;;;5074191;28;20554;-84
2022/08/10 00:23:18;;;;;;;2.90;2.65;;;17.50;99.90;;;;;;5073926;28;20202;-83
2022/08/10 00:25:46;;;;;;;3.10;2.47;;;17.50;99.90;;;;;;5073487;28;20224;-83
2022/08/10 00:28:13;;;;;;;2.60;2.40;;;17.50;99.90;;;;;;5074638;28;20201;-83
2022/08/10 00:30:40;;;;;;;2.88;2.00;;;17.50;99.90;;;;;;5075125;28;20287;-84
2022/08/10 00:33:06;;;;;;;2.35;2.10;;;17.50;99.90;;;;;;5073266;28;20286;-83
2022/08/10 00:35:33;;;;;;;3.47;2.88;;;17.50;99.90;;;;;;5073859;28;20229;-82
2022/08/10 00:38:00;;;;;;;3.17;2.70;;;17.50;99.90;;;;;;5073809;28;20217;-84
2022/08/10 00:40:28;;;;;;;3.65;2.15;;;17.50;99.90;;;;;;5073579;28;20203;-82
2022/08/10 00:42:55;;;;;;;3.08;2.67;;;17.50;99.90;;;;;;5093350;28;20596;-84
2022/08/10 00:45:22;;;;;;;3.38;2.80;;;17.50;99.90;;;;;;5093720;28;20193;-84
2022/08/10 00:47:49;;;;;;;3.08;2.75;;;17.50;99.90;;;;;;5081996;28;20202;-84
2022/08/10 00:50:17;;;;;;;2.33;2.08;;;17.50;99.90;;;;;;5072450;28;20280;-85
2022/08/10 00:52:45;;;;;;;3.83;2.35;;;17.40;99.90;;;;;;5076485;28;20215;-85
2022/08/10 00:55:11;;;;;;;4.40;2.67;;;17.50;99.90;;;;;;5093866;28;20195;-85
2022/08/10 00:57:40;;;;;;;3.63;2.78;;;17.40;99.90;;;;;;5084926;28;20582;-85
2022/08/10 01:00:10;;;;;;;2.83;2.50;;;17.40;99.90;;;;;;5073399;28;20198;-84
2022/08/10 01:02:37;;;;;;;3.33;3.03;;;17.50;99.90;;;;;;5073535;28;20288;-83
2022/08/10 01:05:07;;;;;;;3.15;2.95;;;17.50;99.90;;;;;;5082735;28;20215;-84
2022/08/10 01:07:50;;;;;;;4.05;3.30;;;17.40;99.90;;;;;;5073578;28;20503;-83
2022/08/10 01:10:39;;;;;;;5.63;3.22;;;17.40;99.90;;;;;;5073454;28;20197;-84
2022/08/10 01:13:16;;;;;;;4.35;3.40;;;17.40;99.90;;;;;;5070615;28;20209;-82
2022/08/10 01:15:52;;;;;;;3.55;3.22;;;17.30;99.90;;;;;;5072460;28;20228;-83
2022/08/10 01:18:28;;;;;;;3.88;3.58;;;17.30;99.90;;;;;;5073879;28;20197;-83
2022/08/10 01:21:32;;;;;;;2.90;2.70;;;17.40;99.90;;;;;;5073023;28;20213;-86
2022/08/10 01:24:39;;;;;;;3.95;3.47;;;17.30;99.90;;;;;;5072832;28;20588;-85
2022/08/10 01:27:24;;;;;;;4.28;3.70;;;17.30;99.90;;;;;;5073311;28;20280;-84
2022/08/10 01:30:04;;;;;;;4.38;3.60;;;17.30;99.90;;;;;;5088743;28;20279;-84
2022/08/10 01:32:37;;;;;;;4.80;3.08;;;17.30;99.90;;;;;;5093815;28;20242;-85
2022/08/10 01:35:11;;;;;;;5.00;3.65;;;17.30;99.90;;;;;;5093454;28;20276;-83
2022/08/10 01:37:44;;;;;;;3.08;2.88;;;17.20;99.90;;;;;;5096879;28;20278;-83
2022/08/10 01:40:13;;;;;;;3.22;2.85;;;17.20;99.90;;;;;;5079030;28;20212;-82
2022/08/10 01:42:42;;;;;;;5.30;3.53;;;17.20;99.90;;;;;;5077750;28;20201;-84
2022/08/10 01:45:13;;;;;;;4.72;4.10;;;17.20;99.90;;;;;;5077061;28;20666;-87
2022/08/10 01:50:30;;;;;;;4.00;3.60;;;17.10;99.90;;;;;;5077052;28;20203;-84
2022/08/10 01:53:03;;;;;;;4.53;4.00;;;17.10;99.90;;;;;;5076860;28;20589;-83
2022/08/10 01:55:31;;;;;;;4.07;3.65;;;17.10;99.90;;;;;;5077741;28;20201;-84
2022/08/10 01:58:00;;;;;;;5.05;4.30;;;17.10;99.90;;;;;;5076907;28;20194;-85
2022/08/10 02:00:31;;;;;;;4.60;3.20;;;17.00;99.90;;;;;;5090709;28;20201;-83
2022/08/10 02:03:00;;;;;;;4.53;3.90;;;16.90;99.90;;;;;;5096560;28;20201;-83
2022/08/10 02:05:29;;;;;;;4.72;4.32;;;16.90;99.90;;;;;;5096869;28;20207;-83
2022/08/10 02:07:58;;;;;;;3.33;2.88;;;16.90;99.90;;;;;;5096849;28;20197;-84
2022/08/10 02:10:27;;;;;;;4.38;3.90;;;16.90;99.90;;;;;;5077352;28;20259;-84
2022/08/10 02:12:57;;;;;;;3.67;3.13;;;16.80;99.90;;;;;;5077418;28;20247;-84
2022/08/10 02:15:27;;;;;;;3.10;2.80;;;16.80;99.90;;;;;;5077749;28;20197;-85
2022/08/10 02:17:59;;;;;;;3.92;3.20;;;16.80;99.90;;;;;;5083037;28;20512;-83
2022/08/10 02:20:30;;;;;;;3.65;3.35;;;16.80;99.90;;;;;;5097729;28;20181;-83
2022/08/10 02:23:00;;;;;;;4.30;3.90;;;16.80;99.90;;;;;;5097002;28;20597;-84
2022/08/10 02:25:30;;;;;;;4.10;3.80;;;16.80;99.90;;;;;;5096450;28;20197;-85
2022/08/10 02:27:57;;;;;;;4.88;4.03;;;16.70;99.90;;;;;;5075940;28;20206;-85
2022/08/10 02:30:25;;;;;;;3.80;3.50;;;16.70;99.90;;;;;;5079238;28;20291;-85
2022/08/10 02:32:52;;;;;;;7.15;4.00;;;16.80;99.90;;;;;;5088311;28;20690;-83
2022/08/10 02:35:22;;;;;;;4.93;3.90;;;16.80;99.90;;;;;;5076964;28;20198;-84
2022/08/10 02:37:50;;;;;;;3.80;3.40;;;16.80;99.90;;;;;;5076554;28;20229;-86
2022/08/10 02:40:17;;;;;;;3.92;3.53;;;16.70;99.90;;;;;;5076643;28;20597;-85
2022/08/10 02:42:50;;;;;;;4.15;3.85;;;16.70;99.90;;;;;;5077442;28;20568;-85
2022/08/10 02:45:21;;;;;;;4.60;4.20;;;16.70;99.90;;;;;;5076636;28;20209;-85
2022/08/10 02:47:52;;;;;;;5.22;4.38;;;16.70;99.90;;;;;;5075092;28;20196;-85
2022/08/10 02:50:26;;;;;;;4.38;4.03;;;16.70;99.90;;;;;;5075610;28;20198;-85
2022/08/10 02:53:03;;;;;;;4.50;4.10;;;16.70;99.90;;;;;;5075910;28;20492;-85
2022/08/10 02:55:35;;;;;;;3.97;3.67;;;16.70;99.90;;;;;;5075819;28;20197;-85
2022/08/10 02:58:07;;;;;;;4.00;3.70;;;16.70;99.90;;;;;;5075491;28;20601;-86
2022/08/10 03:00:38;;;;;;;4.35;3.90;;;16.70;99.90;;;;;;5075341;28;20247;-85
2022/08/10 03:03:05;;;;;;;5.28;4.88;;;16.70;99.90;;;;;;5076158;28;20282;-87
2022/08/10 03:05:34;;;;;;;4.53;4.10;;;16.70;99.90;;;;;;5076136;28;20197;-85
2022/08/10 03:08:06;;;;;;;4.80;4.40;;;16.70;99.90;;;;;;5075595;28;20205;-83
2022/08/10 03:10:38;;;;;;;5.75;5.07;;;16.60;99.90;;;;;;5075622;28;20217;-86
2022/08/10 03:13:09;;;;;;;6.05;5.22;;;16.60;99.90;;;;;;5075817;28;20185;-83
2022/08/10 03:15:38;;;;;;;6.82;5.32;;;16.60;99.90;;;;;;5075703;28;20186;-86
2022/08/10 03:18:06;;;;;;;5.95;5.45;;;16.60;99.90;;;;;;5074955;28;20228;-85
2022/08/10 03:20:38;;;;;;;6.85;5.63;;;16.60;99.90;;;;;;5075386;28;20208;-84
2022/08/10 03:23:09;;;;;;;5.90;5.40;;;16.60;99.90;;;;;;5075354;28;20215;-85
2022/08/10 03:25:36;;;;;;;7.70;5.63;;;16.70;99.90;;;;;;5074713;28;20204;-84
2022/08/10 03:28:04;;;;;;;6.70;6.10;;;16.60;99.90;;;;;;5074532;28;20732;-84
2022/08/10 03:30:31;;;;;;;7.18;5.93;;;16.60;99.90;;;;;;5075096;28;20204;-85
2022/08/10 03:33:00;;;;;;;6.13;5.53;;;16.60;99.90;;;;;;5093292;28;20232;-85
2022/08/10 03:35:28;;;;;;;5.53;5.07;;;16.50;99.90;;;;;;5096276;28;20197;-86
2022/08/10 03:37:57;;;;;;;5.95;5.38;;;16.50;99.90;;;;;;5096037;28;20224;-86
2022/08/10 03:40:25;;;;;;;5.07;4.57;;;16.50;99.90;;;;;;5090361;28;20211;-85
2022/08/10 03:42:55;;;;;;;6.38;5.78;;;16.50;99.90;;;;;;5074642;28;20284;-84
2022/08/10 03:45:23;;;;;;;5.70;5.18;;;16.40;99.90;;;;;;5075847;28;20843;-86
2022/08/10 03:47:51;;;;;;;6.90;5.57;;;16.40;99.90;;;;;;5074802;28;20193;-84
2022/08/10 03:50:19;;;;;;;5.45;4.95;;;16.40;99.90;;;;;;5074551;28;20208;-84
2022/08/10 03:52:47;;;;;;;5.70;5.20;;;16.40;99.90;;;;;;5075856;28;20202;-84
2022/08/10 03:55:16;;;;;;;5.85;5.35;;;16.30;99.90;;;;;;5094966;28;20195;-85
2022/08/10 03:57:43;;;;;;;7.82;6.55;;;16.30;99.90;;;;;;5086178;28;20586;-83
2022/08/10 04:00:11;;;;;;;5.18;4.75;;;16.30;99.90;;;;;;5074903;28;20288;-85
2022/08/10 04:02:39;;;;;;;6.78;5.38;;;16.30;99.90;;;;;;5074237;28;20633;-84
2022/08/10 04:05:08;;;;;;;5.63;5.13;;;16.30;99.90;;;;;;5074618;28;20247;-82
2022/08/10 04:07:35;;;;;;;7.53;5.32;;;16.30;99.90;;;;;;5074470;28;20284;-85
2022/08/10 04:10:02;;;;;;;6.28;5.78;;;16.30;99.90;;;;;;5074961;28;20613;-85
2022/08/10 04:12:30;;;;;;;5.85;5.35;;;16.30;99.90;;;;;;5079308;28;20604;-85
2022/08/10 04:14:57;;;;;;;7.15;6.40;;;16.30;99.90;;;;;;5094605;28;20207;-84
2022/08/10 04:17:25;;;;;;;5.07;4.65;;;16.30;99.90;;;;;;5094991;28;20235;-85
2022/08/10 04:19:53;;;;;;;6.32;5.07;;;16.30;99.90;;;;;;5094358;28;20286;-85
2022/08/10 04:22:24;;;;;;;6.87;6.10;;;16.30;99.90;;;;;;5095144;28;20730;-84
2022/08/10 04:24:57;;;;;;;6.05;5.55;;;16.30;99.90;;;;;;5093599;28;20365;-84
2022/08/10 04:27:24;;;;;;;6.82;6.18;;;16.30;99.90;;;;;;5094595;28;20243;-84
2022/08/10 04:29:54;;;;;;;6.88;5.60;;;16.30;99.90;;;;;;5088356;28;20201;-85
2022/08/10 04:32:23;;;;;;;6.20;5.60;;;16.30;99.90;;;;;;5072704;28;20237;-83
2022/08/10 04:34:52;;;;;;;7.00;6.40;;;16.40;99.90;;;;;;5072716;28;20202;-83
2022/08/10 04:37:21;;;;;;;6.63;5.93;;;16.40;99.90;;;;;;5074579;28;20225;-82
2022/08/10 04:39:49;;;;;;;6.63;5.65;;;16.40;99.90;;;;;;5094112;28;20203;-82
2022/08/10 04:42:16;;;;;;;5.85;5.18;;;16.30;99.90;;;;;;5093769;28;20200;-83
2022/08/10 04:44:43;;;;;;;5.97;5.47;;;16.30;99.90;;;;;;5090809;28;20601;-84
2022/08/10 04:47:12;;;;;;;8.77;6.20;;;16.30;99.90;;;;;;5072834;28;20275;-82
2022/08/10 04:49:38;;;;;;;6.63;5.75;;;16.30;99.90;;;;;;5073414;28;20276;-82
2022/08/10 04:52:05;;;;;;;6.63;5.97;;;16.30;99.90;;;;;;5072471;28;20216;-82
2022/08/10 04:54:32;;;;;;;6.25;5.75;;;16.30;99.90;;;;;;5073427;28;20205;-82
2022/08/10 04:56:59;;;;;;;6.78;6.05;;;16.30;99.90;;;;;;5072811;28;20636;-84
2022/08/10 04:59:26;;;;;;;6.00;5.40;;;16.40;99.90;;;;;;5072421;28;20649;-83
2022/08/10 05:01:53;;;;;;;6.63;6.03;;;16.40;99.90;;;;;;5073288;28;20810;-82
2022/08/10 05:04:21;;;;;;;5.87;5.37;;;16.40;99.90;;;;;;5073166;28;20693;-82
2022/08/10 05:06:48;;;;;;;5.80;5.30;;;16.40;99.90;;;;;;5073224;28;20262;-82
2022/08/10 05:09:15;;;;;;;6.87;5.70;;;16.40;99.90;;;;;;5073086;28;20207;-82
2022/08/10 05:11:42;;;;;;;6.97;6.32;;;16.50;99.90;;;;;;5080179;28;20220;-83
2022/08/10 05:14:09;;;;;;;6.47;5.88;;;16.50;99.90;;;;;;5097275;28;20204;-84
2022/08/10 05:16:36;;;;;;;6.88;6.15;;;16.50;99.90;;;;;;5097267;28;20192;-83
2022/08/10 05:19:03;;;;;;;6.45;5.82;;;16.50;99.90;;;;;;5095883;28;20284;-83
2022/08/10 05:21:32;;;;;;;5.13;4.70;;;16.50;99.90;;;;;;5097491;28;20197;-82
2022/08/10 05:24:03;;;;;;;6.50;5.90;;;16.60;99.90;;;;;;5097853;28;20189;-82
2022/08/10 05:26:30;;;;;;;5.63;5.13;;;16.70;99.90;;;;;;5083188;28;20493;-83
2022/08/10 05:28:58;;;;;;;6.55;5.97;;;16.70;99.90;;;;;;5077409;28;20493;-84
2022/08/10 05:31:26;;;;;;;6.97;5.70;;;16.70;99.90;;;;;;5096108;28;20192;-83
2022/08/10 05:33:53;;;;;;;7.43;6.00;;;16.70;99.90;;;;;;5085174;28;20259;-83
2022/08/10 05:36:20;;;;;;;6.88;6.25;;;16.80;99.90;;;;;;5076795;28;20236;-84
2022/08/10 05:38:49;;;;;;;7.22;6.53;;;16.80;99.90;;;;;;5077056;28;20244;-82
2022/08/10 05:41:17;;;;;;;7.68;6.97;;;16.90;99.90;;;;;;5075259;28;20280;-82
2022/08/10 05:43:44;;;;;;;6.07;5.45;;;16.90;99.90;;;;;;5075736;28;20204;-82
2022/08/10 05:46:11;;;;;;;7.32;6.60;;;17.00;99.90;;;;;;5075936;28;20564;-83
2022/08/10 05:48:40;;;;;;;7.57;6.88;;;17.00;99.90;;;;;;5075161;28;20200;-82
2022/08/10 05:51:07;;;;;;;6.82;5.63;;;17.10;99.90;;;;;;5075663;28;20201;-84
2022/08/10 05:53:35;;;;;;;8.90;8.00;;;17.20;99.90;;;;;;5075451;28;20285;-83
2022/08/10 05:56:06;;;;;;;8.18;6.57;;;17.20;99.90;;;;;;5075505;28;20207;-83
2022/08/10 05:58:33;;;;;;;8.93;6.30;;;17.30;99.90;;;;;;5076461;28;20223;-82
2022/08/10 06:01:04;;;;;;;8.43;6.80;;;17.40;99.90;;;;;;5075747;28;20212;-82
2022/08/10 06:03:36;;;;;;;8.00;7.22;;;17.40;99.90;;;;;;5075859;28;20205;-85
2022/08/10 06:06:07;;;;;;;6.55;5.95;;;17.50;99.90;;;;;;5075902;28;20686;-83
2022/08/10 06:08:36;;;;;;;7.05;6.35;;;17.60;99.90;;;;;;5075517;28;20209;-81
2022/08/10 06:11:06;;;;;;;9.95;6.95;;;17.70;99.90;;;;;;5075772;28;20194;-83
2022/08/10 06:16:20;;;;;;;8.77;5.95;;;18.00;99.90;;;;;;5075295;28;20613;-83
2022/08/10 06:18:48;;;;;;;6.43;5.75;;;18.20;99.90;;;;;;5074850;28;20225;-84
2022/08/10 06:21:16;;;;;;;7.60;6.53;;;18.40;99.90;;;;;;5073890;28;20205;-83
2022/08/10 06:23:44;;;;;;;7.55;6.22;;;18.60;99.90;;;;;;5073776;28;20200;-83
2022/08/10 06:26:12;;;;;;;6.95;5.78;;;18.70;99.90;;;;;;5074715;28;20197;-82
2022/08/10 06:28:44;;;;;;;7.22;5.90;;;18.90;99.90;;;;;;5074651;28;20577;-83
2022/08/10 06:31:12;;;;;;;6.53;5.93;;;19.10;99.90;;;;;;5074506;28;20251;-84
2022/08/10 06:33:41;;;;;;;8.48;6.97;;;19.20;99.90;;;;;;5076607;28;20284;-82
2022/08/10 06:36:09;;;;;;;7.43;6.47;;;19.40;99.90;;;;;;5091172;28;20211;-85
2022/08/10 06:38:38;;;;;;;9.32;5.63;;;19.50;99.90;;;;;;5093158;28;20227;-83
2022/08/10 06:41:12;;;;;;;7.03;6.32;;;19.70;99.90;;;;;;5094366;28;20326;-83
2022/08/10 06:43:47;;;;;;;6.70;6.00;;;20.00;99.90;;;;;;5090173;28;20615;-83
2022/08/10 06:46:17;;;;;;;7.07;5.47;;;20.20;99.90;;;;;;5083576;28;20203;-83
2022/08/10 06:48:50;;;;;;;7.22;6.05;;;20.30;99.90;;;;;;5095926;28;20192;-84
2022/08/10 06:51:22;;;;;;;8.55;5.95;;;20.50;99.90;;;;;;5095890;28;20198;-86
2022/08/10 06:53:52;;;;;;;5.70;5.20;;;20.60;99.90;;;;;;5095745;28;20195;-84
2022/08/10 06:56:20;;;;;;;7.35;6.65;;;20.80;99.90;;;;;;5090446;28;20197;-87
2022/08/10 06:58:53;;;;;;;6.53;5.78;;;21.00;99.90;;;;;;5074549;28;20256;-82
2022/08/10 07:01:25;;;;;;;7.57;6.47;;;21.20;99.90;;;;;;5089315;28;20189;-83
2022/08/10 07:04:00;;;;;;;5.60;4.65;;;21.50;92.80;;;;;;5089193;28;20193;-85
2022/08/10 07:06:28;;;;;;;6.28;5.65;;;21.70;84.00;;;;;;5075151;28;20200;-85
2022/08/10 07:08:56;;;;;;;6.63;5.35;;;21.80;47.10;;;;;;5074423;28;20198;-86
2022/08/10 07:11:24;;;;;;;7.63;6.88;;;22.10;32.80;;;;;;5075294;28;20497;-84
2022/08/10 07:13:55;;;;;;;8.00;6.18;;;22.30;1.00;;;;;;5073709;28;20276;-84
2022/08/10 07:16:27;;;;;;;7.43;5.93;;;22.40;1.00;;;;;;5074649;28;20513;-84
2022/08/10 07:18:55;;;;;;;8.20;7.28;;;22.70;1.00;;;;;;5074677;28;20524;-87
2022/08/10 07:21:25;;;;;;;7.90;7.10;;;23.00;1.00;;;;;;5089843;28;20499;-82
2022/08/10 07:23:53;;;;;;;7.25;6.55;;;23.00;1.00;;;;;;5095332;28;20208;-85
2022/08/10 07:26:22;;;;;;;9.38;7.38;;;23.10;1.00;;;;;;5090533;28;20201;-84
2022/08/10 07:28:51;;;;;;;7.40;6.65;;;23.10;1.00;;;;;;5094125;28;20199;-88
2022/08/10 07:31:21;;;;;;;7.60;6.53;;;23.20;1.00;;;;;;5081754;28;20342;-85
2022/08/10 07:33:51;;;;;;;8.25;6.45;;;23.30;99.90;;;;;;5075621;28;20213;-85
2022/08/10 07:36:21;;;;;;;10.00;6.88;;;23.40;1.00;;;;;;5072266;28;21344;-83
2022/08/10 07:38:51;;;;;;;7.05;6.35;;;23.60;1.00;;;;;;5075821;28;20221;-82
2022/08/10 07:41:22;;;;;;;10.02;6.88;;;23.80;1.00;;;;;;5075020;28;20231;-87
2022/08/10 07:43:50;;;;;;;7.57;5.97;;;23.90;1.00;;;;;;5085286;28;20288;-84
2022/08/10 07:46:24;;;;;;;6.68;5.35;;;23.90;32.40;;;;;;5078864;28;20305;-84
2022/08/10 07:49:06;;;;;;;9.90;5.82;;;24.20;1.00;;;;;;5083418;28;20206;-83
2022/08/10 07:51:35;;;;;;;4.68;4.10;;;24.40;1.00;;;;;;5076991;28;20285;-84
2022/08/10 07:54:04;;;;;;;4.53;4.13;;;24.60;1.00;;;;;;5079562;28;20216;-84
2022/08/10 07:56:34;;;;;;;7.63;5.30;;;25.00;99.90;;;;;;5081011;28;20563;-85
2022/08/10 07:59:06;;;;;;;6.72;5.20;;;25.20;89.00;;;;;;5079129;28;20224;-85
2022/08/10 08:01:38;;;;;;;6.05;4.80;;;25.40;1.00;;;;;;5082488;28;20609;-84
2022/08/10 08:04:06;;;;;;;6.18;5.13;;;25.30;1.00;;;;;;5075772;28;20197;-83
2022/08/10 08:06:33;;;;;;;5.72;3.83;;;25.50;99.90;;;;;;5082666;28;20671;-83
2022/08/10 08:09:03;;;;;;;6.10;4.70;;;25.70;1.00;;;;;;5086335;28;20232;-85
2022/08/10 08:11:32;;;;;;;5.78;5.28;;;26.00;99.90;;;;;;5073494;28;20581;-85
2022/08/10 08:14:00;;;;;;;5.30;4.32;;;26.00;1.00;;;;;;5081646;28;20275;-86
2022/08/10 08:16:28;;;;;;;4.22;3.83;;;26.30;1.00;;;;;;5093219;28;20197;-85
2022/08/10 08:18:57;;;;;;;6.00;4.63;;;26.50;1.00;;;;;;5093578;28;20220;-84
2022/08/10 08:21:25;;;;;;;6.93;5.70;;;26.70;99.90;;;;;;5094002;28;20258;-84
2022/08/10 08:23:52;;;;;;;4.80;3.17;;;26.60;1.00;;;;;;5073281;28;20205;-83
2022/08/10 08:26:22;;;;;;;4.93;4.35;;;26.80;99.90;;;;;;5072022;28;20291;-83
2022/08/10 08:28:51;;;;;;;5.22;4.72;;;27.00;1.00;;;;;;5073229;28;20280;-88
2022/08/10 08:31:21;;;;;;;8.32;4.63;;;27.00;1.00;;;;;;5072632;28;20284;-83
2022/08/10 08:33:49;;;;;;;8.13;4.32;;;27.30;1.00;;;;;;5085207;28;20192;-84
2022/08/10 08:36:19;;;;;;;5.10;3.85;;;27.30;1.00;;;;;;5087445;28;20193;-85
2022/08/10 08:38:47;;;;;;;5.65;3.90;;;27.40;1.00;;;;;;5072186;28;20262;-83
2022/08/10 08:41:34;;;;;;;6.22;4.72;;;27.80;1.00;;;;;;5073448;28;20288;-84
2022/08/10 08:44:09;;;;;;;3.45;2.85;;;27.80;1.00;;;;;;5072464;28;20278;-83
2022/08/10 08:46:52;;;;;;;5.25;2.58;;;28.10;1.00;;;;;;5072403;28;20197;-84
2022/08/10 08:49:42;;;;;;;5.15;4.13;;;28.30;1.00;;;;;;5072601;28;20285;-84
2022/08/10 08:52:23;;;;;;;5.40;3.97;;;28.20;1.00;;;;;;5072223;28;20528;-85
2022/08/10 08:55:02;;;;;;;6.35;4.50;;;28.50;1.00;;;;;;5071045;28;20542;-82
2022/08/10 08:57:41;;;;;;;3.72;3.25;;;28.30;99.90;;;;;;5073221;28;20212;-90
2022/08/10 09:00:14;;;;;;;4.82;4.05;;;28.40;1.00;;;;;;5073726;28;20203;-91
2022/08/10 09:03:02;;;;;;;7.97;4.45;;;28.30;1.00;;;;;;5073190;28;20198;-88
2022/08/10 09:05:43;;;;;;;3.25;2.95;;;28.30;1.00;;;;;;5086535;28;20583;-89
2022/08/10 09:08:49;;;;;;;3.63;3.33;;;28.50;1.00;;;;;;5082583;28;20216;-87
2022/08/10 09:11:29;;;;;;;3.90;3.30;;;28.70;99.90;;;;;;5062986;28;20225;-87
2022/08/10 09:14:01;;;;;;;5.13;3.05;;;28.40;99.90;;;;;;5075635;28;20201;-86
2022/08/10 09:16:34;;;;;;;6.70;3.42;;;28.70;99.90;;;;;;5090561;28;20192;-85
2022/08/10 09:19:08;;;;;;;4.45;3.70;;;28.90;99.90;;;;;;5082392;28;20204;-85
2022/08/10 09:21:43;;;;;;;2.08;1.88;;;28.90;99.90;;;;;;5092952;28;20267;-84
2022/08/10 09:24:15;;;;;;;3.58;2.95;;;28.90;99.90;;;;;;5085657;28;20196;-82
2022/08/10 09:26:49;;;;;;;2.30;1.90;;;29.00;99.90;;;;;;5092681;28;20189;-84
2022/08/10 09:29:33;;;;;;;4.95;3.50;;;29.20;99.90;;;;;;5089582;28;20291;-84
2022/08/10 09:32:07;;;;;;;4.60;3.05;;;29.40;99.90;;;;;;5089575;28;20220;-89
2022/08/10 09:34:49;;;;;;;4.82;2.60;;;29.40;99.90;;;;;;5090138;28;20554;-86
2022/08/10 09:37:22;;;;;;;2.00;1.60;;;29.30;99.90;;;;;;5071861;28;20217;-86
2022/08/10 09:39:57;;;;;;;2.70;1.90;;;29.40;99.90;;;;;;5071189;28;20221;-86
2022/08/10 09:42:37;;;;;;;4.70;1.90;;;29.50;99.90;;;;;;5086991;28;20219;-90
2022/08/10 09:45:12;;;;;;;3.03;1.85;;;29.50;99.90;;;;;;5081410;28;20188;-83
2022/08/10 09:47:55;;;;;;;2.55;1.77;;;29.60;99.90;;;;;;5091357;28;20181;-82
2022/08/10 09:50:31;;;;;;;2.15;1.73;;;29.80;99.90;;;;;;5091809;28;20200;-87
2022/08/10 09:53:08;;;;;;;3.35;1.95;;;29.80;99.90;;;;;;5091376;28;20272;-85
2022/08/10 09:55:42;;;;;;;3.95;1.95;;;29.90;99.90;;;;;;5091196;28;20279;-83
2022/08/10 09:58:30;;;;;;;3.10;1.80;;;29.90;99.90;;;;;;5090955;28;20337;-85
2022/08/10 10:01:06;;;;;;;3.00;1.83;;;30.20;99.90;;;;;;5094691;28;20201;-84
2022/08/10 10:03:42;;;;;;;2.92;1.83;;;30.10;99.90;;;;;;5093487;28;20198;-84
2022/08/10 10:06:17;;;;;;;5.82;1.80;;;30.10;99.90;;;;;;5095351;28;20620;-86
2022/08/10 10:08:51;;;;;;;2.72;1.90;;;30.10;99.90;;;;;;5095561;28;20202;-83
2022/08/10 10:11:26;;;;;;;3.70;1.90;;;29.90;99.90;;;;;;5093971;28;20279;-83
2022/08/10 10:14:08;;;;;;;2.25;1.50;;;29.70;99.90;;;;;;5095051;28;20203;-84
2022/08/10 10:16:57;;;;;;;4.80;2.00;;;29.70;99.90;;;;;;5084013;28;20231;-83
2022/08/10 10:19:34;;;;;;;3.03;1.60;;;29.70;99.90;;;;;;5076840;28;20227;-83
2022/08/10 10:22:16;;;;;;;2.45;1.67;;;29.70;99.90;;;;;;5092789;28;20181;-84
2022/08/10 10:24:50;;;;;;;3.50;1.60;;;29.60;99.90;;;;;;5095672;28;20271;-83
2022/08/10 10:27:26;;;;;;;2.30;1.25;;;29.60;99.90;;;;;;5083970;28;20689;-85
2022/08/10 10:30:00;;;;;;;1.73;1.05;;;29.60;99.90;;;;;;5089338;28;20197;-83
2022/08/10 10:32:39;;;;;;;1.73;1.20;;;29.60;99.90;;;;;;5094318;28;20232;-81
2022/08/10 10:35:15;;;;;;;2.65;1.38;;;29.60;99.90;;;;;;5092122;28;20204;-86
2022/08/10 10:37:44;;;;;;;3.10;1.20;;;29.70;99.90;;;;;;5094893;28;20272;-86
2022/08/10 10:40:12;;;;;;;4.15;1.38;;;29.80;99.90;;;;;;5094781;28;20221;-85
2022/08/10 10:43:03;;;;;;;2.45;1.02;;;30.00;99.90;;;;;;5094651;28;20299;-84
2022/08/10 10:45:44;;;;;;;2.28;1.15;;;30.00;99.90;;;;;;5075273;28;20284;-86
2022/08/10 10:48:19;;;;;;;2.35;1.50;;;30.20;99.90;;;;;;5074492;28;20262;-83
2022/08/10 10:51:07;;;;;;;1.98;1.20;;;30.00;99.90;;;;;;5088736;28;20489;-85
2022/08/10 10:53:40;;;;;;;2.90;1.23;;;30.00;99.90;;;;;;5094976;28;20208;-83
2022/08/10 10:56:16;;;;;;;2.42;1.10;;;29.90;99.90;;;;;;5094933;28;20211;-84
2022/08/10 10:58:58;;;;;;;3.40;1.30;;;29.90;99.90;;;;;;5075440;28;20213;-86
2022/08/10 11:01:42;;;;;;;3.45;1.20;;;30.10;99.90;;;;;;5086778;28;20242;-87
2022/08/10 11:04:20;;;;;;;2.05;1.48;;;30.10;99.90;;;;;;5094894;28;20197;-82
2022/08/10 11:06:56;;;;;;;1.08;0.90;;;30.30;99.90;;;;;;5094799;28;20211;-83
2022/08/10 11:09:29;;;;;;;2.88;1.15;;;30.40;99.90;;;;;;5073405;28;20215;-83
2022/08/10 11:12:03;;;;;;;1.30;1.20;;;30.60;99.90;;;;;;5073640;28;20270;-83
2022/08/10 11:14:36;;;;;;;2.35;1.30;;;30.60;99.90;;;;;;5073807;28;20203;-85
2022/08/10 11:17:11;;;;;;;2.50;1.15;;;30.80;99.90;;;;;;5074220;28;20201;-84
2022/08/10 11:19:46;;;;;;;2.60;1.23;;;31.10;99.90;;;;;;5079668;28;20228;-85
2022/08/10 11:22:22;;;;;;;1.88;1.15;;;31.00;99.90;;;;;;5094301;28;20200;-85
2022/08/10 11:24:56;;;;;;;1.88;1.02;;;31.20;99.90;;;;;;5094098;28;20214;-84
2022/08/10 11:27:37;;;;;;;2.30;1.27;;;31.30;99.90;;;;;;5093425;28;20192;-83
2022/08/10 11:30:07;;;;;;;2.45;1.00;;;31.40;99.90;;;;;;5092470;28;20210;-85
2022/08/10 11:32:46;;;;;;;2.17;1.27;;;31.30;99.90;;;;;;5093680;28;20229;-84
2022/08/10 11:35:22;;;;;;;1.60;1.00;;;31.10;99.90;;;;;;5093984;28;20523;-86
2022/08/10 11:37:58;;;;;;;1.95;0.90;;;31.10;99.90;;;;;;5092970;28;20223;-84
2022/08/10 11:40:29;;;;;;;4.20;1.30;;;31.20;99.90;;;;;;5090608;28;20251;-83
2022/08/10 11:43:07;;;;;;;1.58;1.15;;;31.30;99.90;;;;;;5073388;28;20268;-85
2022/08/10 11:45:37;;;;;;;1.52;1.00;;;31.30;99.90;;;;;;5073097;28;20200;-84
2022/08/10 11:48:15;;;;;;;2.33;1.20;;;31.50;99.90;;;;;;5072297;28;20255;-82
2022/08/10 11:50:48;;;;;;;2.45;1.15;;;31.30;99.90;;;;;;5080330;28;20200;-83
2022/08/10 11:53:21;;;;;;;3.42;0.75;;;31.30;99.90;;;;;;5093543;28;20219;-85
2022/08/10 11:55:54;;;;;;;1.98;0.88;;;31.50;99.90;;;;;;5093069;28;20181;-83
2022/08/10 12:01:10;;;;;;;1.30;1.20;;;31.80;99.90;;;;;;5072597;28;20271;-86
2022/08/10 12:03:41;;;;;;;2.88;1.08;;;31.60;99.90;;;;;;5081638;28;20195;-84
2022/08/10 12:06:12;;;;;;;3.92;1.67;;;31.60;99.90;;;;;;5093550;28;20629;-86
2022/08/10 12:08:42;;;;;;;1.85;1.20;;;31.70;99.90;;;;;;5080468;28;20205;-84
2022/08/10 12:11:10;;;;;;;3.17;1.00;;;31.50;97.30;;;;;;5072875;28;20192;-84
2022/08/10 12:13:42;;;;;;;2.17;1.10;;;31.30;96.40;;;;;;5072824;28;20213;-84
2022/08/10 12:16:15;;;;;;;1.55;0.93;;;31.50;97.00;;;;;;5073233;28;20197;-84
2022/08/10 12:18:48;;;;;;;2.92;0.80;;;31.70;97.90;;;;;;5072709;28;20197;-84
2022/08/10 12:21:20;;;;;;;2.17;0.90;;;31.60;94.30;;;;;;5072386;28;20205;-83
2022/08/10 12:23:53;;;;;;;2.55;1.00;;;31.80;96.30;;;;;;5072925;28;20552;-83
2022/08/10 12:26:26;;;;;;;2.58;0.95;;;31.80;93.50;;;;;;5072673;28;20193;-82
2022/08/10 12:29:01;;;;;;;2.28;1.00;;;31.80;94.60;;;;;;5073190;28;20194;-91
2022/08/10 12:31:34;;;;;;;1.83;0.88;;;31.60;92.90;;;;;;5079701;28;20206;-84
2022/08/10 12:34:14;;;;;;;2.53;0.85;;;31.40;90.40;;;;;;5073035;28;20190;-83
2022/08/10 12:36:44;;;;;;;2.55;1.20;;;31.20;91.30;;;;;;5072466;28;20221;-85
2022/08/10 12:39:19;;;;;;;3.97;1.10;;;31.20;91.20;;;;;;5075631;28;20557;-84
2022/08/10 12:41:52;;;;;;;1.42;0.98;;;31.30;90.70;;;;;;5075927;28;20266;-83
2022/08/10 12:44:29;;;;;;;2.38;0.80;;;31.30;90.00;;;;;;5075708;28;20200;-88
2022/08/10 12:47:01;;;;;;;2.08;0.90;;;31.30;90.10;;;;;;5074878;28;20280;-87
2022/08/10 12:49:34;;;;;;;2.05;1.05;;;31.40;90.00;;;;;;5074181;28;20193;-89
2022/08/10 12:52:11;;;;;;;1.40;0.98;;;31.30;87.50;;;;;;5073569;28;20780;-87
2022/08/10 12:54:40;;;;;;;1.92;0.95;;;31.30;87.80;;;;;;5073297;28;20193;-86
2022/08/10 12:57:10;;;;;;;3.45;1.15;;;31.40;88.70;;;;;;5072736;28;20201;-88
2022/08/10 12:59:40;;;;;;;2.95;1.13;;;31.40;88.70;;;;;;5073793;28;20217;-87
2022/08/10 13:02:11;;;;;;;2.03;1.00;;;31.60;87.30;;;;;;5074465;28;20280;-90
2022/08/10 13:04:42;;;;;;;1.55;1.00;;;31.80;85.10;;;;;;5072820;28;20296;-89
2022/08/10 13:07:10;;;;;;;2.25;1.02;;;31.70;81.70;;;;;;5072990;28;20231;-86
2022/08/10 13:09:37;;;;;;;5.00;0.98;;;31.50;81.10;;;;;;5073694;28;20227;-91
2022/08/10 13:12:08;;;;;;;1.20;0.88;;;31.30;77.00;;;;;;5073816;28;20197;-86
2022/08/10 13:14:40;;;;;;;3.30;1.00;;;31.10;76.20;;;;;;5073326;28;20231;-87
2022/08/10 13:17:09;;;;;;;2.05;0.80;;;31.20;75.90;;;;;;5073494;28;20221;-88
2022/08/10 13:19:41;;;;;;;2.25;0.90;;;31.30;74.70;;;;;;5073276;28;20222;-87